Time;durP1;ratioP1;P1;durP2;ratioP2;P2;SDS_P1;SDS_P2;PMS_P1;PMS_P2;Temp;Humidity;BMP_temperature;BMP_pressure;BME280_temperature;BME280_humidity;BME280_pressure;Samples;Min_cycle;Max_cycle;Signal;HPM_P1;HPM_P2
2023/07/11 00:01:08;;;;;;;4.33;3.10;;;22.80;77.40;;;25.42;50.69;101772.13;5062190;28;20250;-59
2023/07/11 00:03:37;;;;;;;5.30;3.60;;;22.80;77.40;;;25.44;50.60;101756.56;5075934;28;20260;-58
2023/07/11 00:06:07;;;;;;;5.93;3.10;;;22.80;77.30;;;25.47;50.70;101753.38;5075928;28;20276;-60
2023/07/11 00:08:38;;;;;;;7.10;3.90;;;22.80;77.20;;;25.47;50.92;101755.25;5075259;28;20181;-60
2023/07/11 00:11:09;;;;;;;4.33;3.10;;;22.80;77.10;;;25.45;50.48;101757.38;5068784;28;20218;-59
2023/07/11 00:13:37;;;;;;;5.57;3.40;;;22.80;77.10;;;25.46;50.76;101757.13;5055498;28;20217;-59
2023/07/11 00:16:07;;;;;;;7.60;3.27;;;22.80;77.60;;;25.47;51.35;101750.66;5055786;28;20194;-60
2023/07/11 00:18:36;;;;;;;4.37;2.93;;;22.80;77.80;;;25.49;51.28;101745.84;5055128;28;20301;-58
2023/07/11 00:21:04;;;;;;;6.03;3.33;;;22.80;77.80;;;25.49;50.85;101745.84;5058881;28;20301;-57
2023/07/11 00:23:32;;;;;;;5.30;3.20;;;22.80;77.80;;;25.51;51.23;101741.00;5055350;28;20229;-60
2023/07/11 00:25:59;;;;;;;5.63;3.27;;;22.80;77.80;;;25.50;50.70;101747.50;5055608;28;20259;-60
2023/07/11 00:28:26;;;;;;;4.53;2.97;;;22.80;77.70;;;25.52;51.07;101747.22;5055091;28;20186;-60
2023/07/11 00:30:53;;;;;;;4.67;3.00;;;22.80;77.80;;;25.52;50.98;101739.13;5059629;28;20655;-59
2023/07/11 00:33:20;;;;;;;6.00;3.43;;;22.80;77.80;;;25.52;51.32;101734.56;5075392;28;20268;-60
2023/07/11 00:35:51;;;;;;;7.43;3.33;;;22.80;77.80;;;25.53;50.65;101735.38;5074641;28;20247;-60
2023/07/11 00:38:19;;;;;;;3.83;3.10;;;22.80;77.80;;;25.53;50.58;101730.78;5075386;28;20668;-59
2023/07/11 00:40:49;;;;;;;3.70;2.80;;;22.80;77.80;;;25.54;50.71;101727.03;5073991;28;20666;-57
2023/07/11 00:43:20;;;;;;;3.37;2.57;;;22.80;77.80;;;25.58;50.65;101734.63;5075018;28;20197;-59
2023/07/11 00:46:03;;;;;;;4.50;2.60;;;22.80;77.80;;;25.54;50.76;101727.03;5074685;28;20728;-58
2023/07/11 00:48:34;;;;;;;5.10;3.00;;;22.90;77.90;;;25.58;50.56;101726.53;5074871;28;20189;-58
2023/07/11 00:51:05;;;;;;;3.43;2.83;;;22.90;77.90;;;25.55;50.42;101717.06;5069386;28;20292;-56
2023/07/11 00:53:33;;;;;;;5.77;3.53;;;22.90;77.90;;;25.54;50.50;101726.22;5055040;28;20232;-60
2023/07/11 00:56:05;;;;;;;3.50;2.77;;;22.80;77.60;;;25.52;50.83;101723.78;5054476;28;20269;-59
2023/07/11 00:58:35;;;;;;;7.60;3.97;;;22.80;77.70;;;25.48;51.08;101722.63;5054586;28;20210;-57
2023/07/11 01:01:02;;;;;;;7.07;4.37;;;22.80;77.50;;;25.37;50.56;101715.44;5059614;28;20193;-59
2023/07/11 01:03:30;;;;;;;6.53;3.80;;;22.80;77.40;;;25.26;50.82;101713.66;5074675;28;20277;-58
2023/07/11 01:05:58;;;;;;;8.03;3.87;;;22.70;77.30;;;25.14;51.25;101712.94;5074998;28;20189;-57
2023/07/11 01:08:26;;;;;;;4.60;3.13;;;22.60;77.30;;;25.04;50.96;101710.09;5073579;28;20280;-59
2023/07/11 01:10:53;;;;;;;5.53;3.10;;;22.50;77.40;;;24.96;51.53;101705.09;5070822;28;20205;-59
2023/07/11 01:13:20;;;;;;;3.30;2.80;;;22.50;77.70;;;24.96;52.05;101702.41;5054377;28;20197;-59
2023/07/11 01:15:49;;;;;;;5.07;3.67;;;22.40;78.20;;;24.99;51.64;101693.84;5054710;28;20273;-60
2023/07/11 01:18:16;;;;;;;6.90;4.00;;;22.40;78.30;;;24.99;51.09;101695.72;5070419;28;20275;-59
2023/07/11 01:20:43;;;;;;;6.47;4.23;;;22.40;78.20;;;24.92;51.85;101690.50;5054116;28;20205;-58
2023/07/11 01:23:11;;;;;;;4.57;3.33;;;22.40;78.00;;;24.91;51.40;101688.88;5053946;28;20202;-57
2023/07/11 01:25:38;;;;;;;4.53;3.73;;;22.40;78.30;;;24.89;51.80;101680.22;5054202;28;20198;-56
2023/07/11 01:28:05;;;;;;;4.63;3.43;;;22.30;78.20;;;24.87;51.20;101682.34;5054051;28;20193;-59
2023/07/11 01:30:32;;;;;;;6.50;4.40;;;22.30;78.20;;;24.83;51.52;101689.28;5054139;28;20229;-56
2023/07/11 01:32:59;;;;;;;6.17;3.83;;;22.30;78.30;;;24.78;51.23;101684.63;5054147;28;20190;-58
2023/07/11 01:35:27;;;;;;;5.70;3.37;;;22.20;78.10;;;24.75;51.54;101678.88;5054029;28;20216;-60
2023/07/11 01:37:53;;;;;;;5.97;3.73;;;22.20;78.50;;;24.75;51.47;101684.25;5052429;28;20233;-59
2023/07/11 01:40:22;;;;;;;6.27;3.90;;;22.20;79.30;;;24.70;51.93;101673.41;5058319;28;20305;-59
2023/07/11 01:42:50;;;;;;;8.33;4.53;;;22.10;78.40;;;24.68;51.82;101673.66;5056599;28;20375;-59
2023/07/11 01:45:18;;;;;;;5.60;3.23;;;22.10;78.60;;;24.65;52.22;101667.97;5073623;28;20268;-59
2023/07/11 01:47:45;;;;;;;5.93;3.47;;;22.10;78.70;;;24.66;52.11;101669.56;5073906;28;20216;-57
2023/07/11 01:50:12;;;;;;;6.17;3.70;;;22.10;79.30;;;24.66;52.54;101665.00;5056574;28;20717;-59
2023/07/11 01:52:39;;;;;;;5.43;3.83;;;22.10;78.90;;;24.66;51.74;101665.00;5053994;28;20276;-59
2023/07/11 01:55:10;;;;;;;5.10;3.73;;;22.10;78.80;;;24.67;51.86;101663.16;5053781;28;20204;-58
2023/07/11 01:57:38;;;;;;;4.90;3.77;;;22.10;78.70;;;24.66;52.15;101658.81;5053322;28;20234;-57
2023/07/11 02:00:07;;;;;;;4.17;3.50;;;22.10;78.70;;;24.66;52.16;101653.41;5068273;28;20739;-59
2023/07/11 02:02:34;;;;;;;4.13;3.63;;;22.10;78.60;;;24.66;52.09;101656.13;5073688;28;20679;-58
2023/07/11 02:05:01;;;;;;;4.83;4.00;;;22.10;78.60;;;24.67;51.51;101655.06;5073735;28;20284;-59
2023/07/11 02:07:28;;;;;;;5.13;3.37;;;22.10;78.50;;;24.67;51.47;101649.69;5073814;28;20272;-59
2023/07/11 02:09:55;;;;;;;7.77;4.10;;;22.10;78.70;;;24.69;52.23;101647.56;5059649;28;20206;-58
2023/07/11 02:12:22;;;;;;;6.33;4.17;;;22.10;78.70;;;24.69;51.56;101651.06;5053335;28;20679;-61
2023/07/11 02:14:50;;;;;;;7.37;4.83;;;22.10;78.50;;;24.66;51.96;101648.03;5053484;28;20189;-58
2023/07/11 02:17:17;;;;;;;6.23;4.17;;;22.10;78.30;;;24.56;51.56;101647.88;5053429;28;20194;-59
2023/07/11 02:19:45;;;;;;;7.33;4.60;;;22.10;78.30;;;24.51;52.29;101642.41;5061014;28;20208;-59
2023/07/11 02:22:12;;;;;;;5.60;3.73;;;22.00;78.20;;;24.46;51.89;101637.75;5073288;28;20197;-59
2023/07/11 02:24:40;;;;;;;9.13;6.50;;;22.00;78.30;;;24.41;51.51;101637.69;5067239;28;20198;-59
2023/07/11 02:27:08;;;;;;;5.13;4.20;;;22.00;78.20;;;24.37;51.66;101633.00;5053289;28;20186;-59
2023/07/11 02:29:35;;;;;;;6.87;4.70;;;21.90;78.20;;;24.37;52.18;101633.81;5059311;28;20209;-59
2023/07/11 02:32:04;;;;;;;5.00;3.27;;;21.90;78.30;;;24.38;51.97;101634.66;5073562;28;20193;-58
2023/07/11 02:34:31;;;;;;;6.30;4.40;;;21.90;78.50;;;24.31;51.94;101631.28;5073445;28;20526;-59
2023/07/11 02:36:58;;;;;;;5.10;2.90;;;21.80;78.20;;;24.27;51.87;101627.47;5073229;28;20189;-56
2023/07/11 02:39:25;;;;;;;4.67;3.30;;;21.80;78.20;;;24.23;51.97;101627.13;5067432;28;20217;-59
2023/07/11 02:41:52;;;;;;;5.60;3.30;;;21.80;78.30;;;24.20;51.74;101623.03;5053168;28;20304;-57
2023/07/11 02:44:19;;;;;;;4.03;3.30;;;21.70;78.10;;;24.18;52.19;101621.66;5069092;28;20658;-58
2023/07/11 02:46:46;;;;;;;3.40;3.07;;;21.70;78.30;;;24.15;51.78;101614.88;5073478;28;20669;-58
2023/07/11 02:49:14;;;;;;;4.43;3.43;;;21.70;78.20;;;24.11;52.02;101619.13;5072079;28;20217;-58
2023/07/11 02:51:41;;;;;;;4.80;3.33;;;21.60;78.30;;;24.08;51.93;101616.91;5073324;28;20239;-60
2023/07/11 02:54:08;;;;;;;3.57;2.87;;;21.60;78.30;;;24.07;52.32;101603.69;5073385;28;20545;-59
2023/07/11 02:56:35;;;;;;;4.43;3.80;;;21.60;78.20;;;24.08;51.96;101608.03;5073460;28;20193;-59
2023/07/11 02:59:03;;;;;;;4.93;3.90;;;21.60;78.30;;;24.06;51.99;101610.09;5055392;28;20232;-56
2023/07/11 03:01:31;;;;;;;6.03;3.23;;;21.60;78.40;;;24.01;52.29;101613.50;5053217;28;20209;-58
2023/07/11 03:03:58;;;;;;;6.87;3.13;;;21.50;78.40;;;23.96;52.28;101613.41;5052920;28;20186;-59
2023/07/11 03:06:26;;;;;;;6.03;3.60;;;21.60;78.50;;;23.92;52.28;101612.28;5052953;28;20194;-58
2023/07/11 03:08:53;;;;;;;6.77;3.50;;;21.50;78.60;;;23.85;52.65;101597.34;5068822;28;20208;-59
2023/07/11 03:11:20;;;;;;;4.43;3.10;;;21.50;78.70;;;23.83;52.57;101605.66;5076302;28;20227;-59
2023/07/11 03:13:47;;;;;;;4.33;3.00;;;21.40;78.80;;;23.83;52.67;101594.91;5076562;28;20193;-59
2023/07/11 03:16:14;;;;;;;3.87;3.30;;;21.40;78.90;;;23.82;52.87;101582.50;5076613;28;20355;-59
2023/07/11 03:18:41;;;;;;;5.13;3.30;;;21.40;79.00;;;23.83;52.39;101573.38;5061607;28;20205;-60
2023/07/11 03:21:08;;;;;;;5.07;3.07;;;21.40;79.20;;;23.85;52.80;101576.66;5056404;28;20655;-59
2023/07/11 03:23:36;;;;;;;4.90;3.00;;;21.40;79.20;;;23.85;52.55;101570.44;5056322;28;20280;-58
2023/07/11 03:26:03;;;;;;;4.40;3.40;;;21.40;79.20;;;23.83;52.85;101567.19;5056762;28;20280;-58
2023/07/11 03:28:30;;;;;;;7.43;3.67;;;21.40;79.20;;;23.80;52.62;101560.41;5068256;28;20229;-60
2023/07/11 03:30:58;;;;;;;8.00;3.47;;;21.30;79.10;;;23.77;53.00;101563.56;5077044;28;20587;-59
2023/07/11 03:33:25;;;;;;;4.97;3.17;;;21.30;79.10;;;23.76;52.83;101561.97;5076263;28;20188;-58
2023/07/11 03:35:52;;;;;;;8.03;3.50;;;21.30;79.30;;;23.77;52.72;101568.94;5075851;28;20189;-58
2023/07/11 03:38:20;;;;;;;5.47;3.37;;;21.30;79.30;;;23.76;52.79;101561.97;5065406;28;20202;-58
2023/07/11 03:40:48;;;;;;;5.73;3.23;;;21.30;79.30;;;23.73;52.74;101562.44;5055528;28;20217;-54
2023/07/11 03:43:15;;;;;;;5.23;3.40;;;21.30;79.30;;;23.73;52.97;101559.75;5057625;28;20224;-58
2023/07/11 03:45:45;;;;;;;5.93;3.47;;;21.30;79.50;;;23.71;52.97;101558.34;5055585;28;20532;-59
2023/07/11 03:48:15;;;;;;;4.30;3.57;;;21.20;79.50;;;23.64;53.30;101558.50;5065413;28;20196;-59
2023/07/11 03:50:43;;;;;;;8.00;3.70;;;21.20;79.70;;;23.64;53.23;101555.81;5075757;28;20213;-59
2023/07/11 03:53:10;;;;;;;4.37;3.00;;;21.20;79.80;;;23.63;53.44;101554.16;5075444;28;20339;-60
2023/07/11 03:55:37;;;;;;;3.43;2.93;;;21.20;79.90;;;23.65;53.12;101554.78;5075394;28;20185;-59
2023/07/11 03:58:06;;;;;;;4.63;3.30;;;21.20;80.70;;;23.72;53.35;101549.25;5067581;28;20221;-59
2023/07/11 04:00:32;;;;;;;6.67;3.33;;;21.20;80.10;;;23.76;53.07;101542.31;5055317;28;20217;-56
2023/07/11 04:03:00;;;;;;;5.20;3.40;;;21.20;80.10;;;23.80;52.94;101546.97;5055773;28;20186;-60
2023/07/11 04:05:27;;;;;;;6.83;3.40;;;21.20;80.00;;;23.76;52.92;101551.22;5057891;28;20223;-57
2023/07/11 04:07:54;;;;;;;5.23;3.27;;;21.20;79.80;;;23.78;53.03;101549.09;5061513;28;20323;-56
2023/07/11 04:10:21;;;;;;;6.20;3.27;;;21.30;80.00;;;23.74;53.09;101547.94;5075274;28;20209;-59
2023/07/11 04:12:50;;;;;;;6.40;3.87;;;21.30;80.00;;;23.73;53.17;101540.91;5075544;28;20217;-55
2023/07/11 04:15:18;;;;;;;8.40;3.67;;;21.30;79.90;;;23.75;53.41;101549.56;5075219;28;20206;-55
2023/07/11 04:17:45;;;;;;;8.03;3.70;;;21.20;79.90;;;23.76;53.22;101540.44;5070819;28;20192;-59
2023/07/11 04:20:12;;;;;;;7.30;3.50;;;21.30;80.00;;;23.79;53.01;101539.97;5054047;28;20631;-59
2023/07/11 04:22:39;;;;;;;5.23;3.27;;;21.30;79.90;;;23.84;52.83;101548.13;5055235;28;20194;-56
2023/07/11 04:25:07;;;;;;;4.03;2.90;;;21.30;79.90;;;23.83;52.89;101541.13;5055456;28;20190;-59
2023/07/11 04:27:34;;;;;;;5.23;3.00;;;21.30;79.70;;;23.89;52.87;101545.50;5056640;28;20198;-60
2023/07/11 04:30:01;;;;;;;10.00;3.07;;;21.40;79.80;;;23.92;53.03;101544.22;5055209;28;20648;-58
2023/07/11 04:32:29;;;;;;;10.17;3.30;;;21.40;79.60;;;23.93;52.56;101549.38;5055374;28;20185;-60
2023/07/11 04:34:56;;;;;;;6.63;3.40;;;21.40;79.40;;;23.91;52.66;101543.41;5055220;28;20296;-59
2023/07/11 04:37:24;;;;;;;7.47;3.50;;;21.40;79.30;;;23.94;52.60;101540.22;5055171;28;20196;-57
2023/07/11 04:39:51;;;;;;;6.33;3.10;;;21.50;79.30;;;23.92;52.37;101539.66;5074207;28;20231;-59
2023/07/11 04:42:18;;;;;;;6.37;3.30;;;21.40;79.10;;;23.89;52.59;101534.75;5075176;28;20195;-60
2023/07/11 04:44:45;;;;;;;5.30;3.70;;;21.40;79.10;;;23.89;52.65;101534.75;5056474;28;20194;-60
2023/07/11 04:47:12;;;;;;;4.53;2.83;;;21.40;79.00;;;23.93;52.40;101525.16;5054878;28;20586;-58
2023/07/11 04:49:40;;;;;;;7.53;3.13;;;21.50;79.20;;;23.98;52.73;101532.50;5073243;28;20300;-60
2023/07/11 04:52:07;;;;;;;6.20;3.47;;;21.50;79.20;;;24.05;52.18;101525.91;5074632;28;20620;-59
2023/07/11 04:54:35;;;;;;;7.97;3.60;;;21.50;79.10;;;24.07;52.00;101529.19;5074706;28;20272;-59
2023/07/11 04:57:03;;;;;;;4.30;3.20;;;21.50;78.70;;;24.10;51.76;101520.59;5074799;28;20217;-60
2023/07/11 04:59:30;;;;;;;5.37;2.90;;;21.50;78.50;;;24.11;52.24;101516.03;5056509;28;20245;-58
2023/07/11 05:01:57;;;;;;;5.27;3.00;;;21.60;78.50;;;24.11;51.84;101519.56;5061079;28;20285;-60
2023/07/11 05:04:24;;;;;;;7.27;3.20;;;21.60;78.20;;;24.14;51.60;101521.78;5074498;28;20189;-60
2023/07/11 05:06:52;;;;;;;6.70;3.43;;;21.60;78.10;;;24.18;51.29;101512.13;5073531;28;20193;-60
2023/07/11 05:09:19;;;;;;;4.53;3.00;;;21.60;78.20;;;24.22;51.55;101518.66;5057498;28;20224;-60
2023/07/11 05:11:46;;;;;;;7.73;3.30;;;21.70;78.10;;;24.26;51.43;101508.22;5054148;28;20280;-57
2023/07/11 05:14:13;;;;;;;6.23;3.23;;;21.70;78.00;;;24.29;51.05;101505.06;5053975;28;20198;-59
2023/07/11 05:16:40;;;;;;;5.20;3.07;;;21.70;77.80;;;24.33;51.40;101502.66;5054013;28;20285;-59
2023/07/11 05:19:07;;;;;;;5.10;3.00;;;21.80;77.70;;;24.35;51.15;101505.94;5072535;28;20585;-58
2023/07/11 05:21:34;;;;;;;8.90;4.00;;;21.80;77.60;;;24.39;51.12;101507.09;5073854;28;20653;-59
2023/07/11 05:24:03;;;;;;;5.63;3.67;;;21.90;77.50;;;24.43;50.66;101508.22;5073767;28;20185;-57
2023/07/11 05:26:31;;;;;;;6.50;2.87;;;21.90;77.40;;;24.50;51.21;101500.78;5073861;28;20207;-58
2023/07/11 05:28:58;;;;;;;5.20;2.90;;;22.00;77.00;;;24.57;50.64;101496.84;5059787;28;20214;-61
2023/07/11 05:31:25;;;;;;;3.77;2.80;;;22.00;77.00;;;24.68;50.37;101489.72;5072426;28;20660;-61
2023/07/11 05:33:53;;;;;;;6.37;3.00;;;22.10;77.10;;;24.80;50.59;101483.19;5073417;28;20272;-59
2023/07/11 05:36:31;;;;;;;5.23;2.97;;;22.10;77.00;;;24.86;50.46;101481.38;5073284;28;20189;-58
2023/07/11 05:39:03;;;;;;;6.77;3.33;;;22.20;76.60;;;24.88;49.39;101473.84;5071989;28;20227;-60
2023/07/11 05:41:33;;;;;;;5.83;3.13;;;22.30;76.00;;;24.87;49.86;101470.34;5073550;28;20258;-57
2023/07/11 05:44:01;;;;;;;5.17;2.93;;;22.30;75.80;;;24.81;50.14;101473.22;5062104;28;20272;-59
2023/07/11 05:46:28;;;;;;;7.53;2.90;;;22.30;75.70;;;24.80;50.29;101461.63;5053073;28;20194;-59
2023/07/11 05:48:57;;;;;;;4.63;3.10;;;22.30;75.90;;;24.81;49.90;101467.84;5064573;28;20212;-59
2023/07/11 05:51:25;;;;;;;6.57;3.17;;;22.40;76.00;;;24.87;50.32;101466.81;5073167;28;20196;-58
2023/07/11 05:53:52;;;;;;;6.80;3.07;;;22.40;76.10;;;24.93;50.21;101471.22;5073588;28;20189;-60
2023/07/11 05:56:20;;;;;;;5.27;2.93;;;22.40;76.20;;;25.01;49.83;101464.59;5073444;28;20268;-59
2023/07/11 05:58:52;;;;;;;3.43;2.90;;;22.40;75.90;;;25.06;49.55;101459.22;5060838;28;20220;-59
2023/07/11 06:01:22;;;;;;;8.27;3.70;;;22.50;76.00;;;25.08;49.88;101457.91;5053139;28;20230;-60
2023/07/11 06:04:02;;;;;;;5.00;3.07;;;22.50;75.90;;;25.12;49.37;101455.53;5053061;28;20642;-60
2023/07/11 06:06:29;;;;;;;4.77;2.90;;;22.60;76.00;;;25.18;49.39;101447.25;5053488;28;20204;-59
2023/07/11 06:08:56;;;;;;;6.20;3.00;;;22.60;75.90;;;25.23;49.38;101447.28;5053947;28;20210;-59
2023/07/11 06:11:23;;;;;;;7.10;3.40;;;22.60;75.70;;;25.25;49.58;101436.25;5053108;28;20190;-60
2023/07/11 06:13:52;;;;;;;7.27;3.30;;;22.70;75.60;;;25.19;49.93;101454.28;5053041;28;20272;-59
2023/07/11 06:16:19;;;;;;;7.13;2.93;;;22.70;75.60;;;25.20;49.79;101434.31;5053173;28;20201;-60
2023/07/11 06:18:48;;;;;;;6.07;2.67;;;22.70;75.80;;;25.31;49.37;101438.78;5062447;28;20215;-59
2023/07/11 06:21:15;;;;;;;5.33;3.33;;;22.80;75.90;;;25.25;50.11;101431.69;5073088;28;20616;-60
2023/07/11 06:23:44;;;;;;;4.97;2.80;;;22.80;75.60;;;25.33;49.52;101431.22;5064572;28;20197;-58
2023/07/11 06:26:11;;;;;;;4.50;2.80;;;22.80;75.60;;;25.44;49.35;101430.28;5053140;28;20273;-62
2023/07/11 06:28:38;;;;;;;5.43;3.00;;;22.90;75.90;;;25.57;49.89;101428.25;5061056;28;20185;-58
2023/07/11 06:31:10;;;;;;;3.63;2.80;;;22.90;76.00;;;25.69;49.61;101426.19;5073054;28;20195;-61
2023/07/11 06:33:38;;;;;;;6.67;3.33;;;23.00;75.70;;;25.79;48.61;101416.31;5072617;28;20530;-59
2023/07/11 06:36:07;;;;;;;8.67;3.07;;;23.10;75.30;;;25.91;48.46;101410.72;5072228;28;20280;-60
2023/07/11 06:38:34;;;;;;;3.67;2.60;;;23.20;74.90;;;25.99;48.53;101418.31;5064436;28;20620;-58
2023/07/11 06:41:02;;;;;;;5.93;2.87;;;23.30;74.80;;;26.05;47.74;101409.97;5052505;28;20198;-61
2023/07/11 06:43:30;;;;;;;6.60;3.07;;;23.40;73.90;;;26.12;47.38;101407.09;5054200;28;20197;-59
2023/07/11 06:45:59;;;;;;;5.17;2.50;;;23.50;73.50;;;26.14;47.46;101397.66;5056710;28;20208;-58
2023/07/11 06:48:30;;;;;;;4.13;2.70;;;23.50;73.00;;;26.16;46.92;101405.50;5056582;28;20194;-58
2023/07/11 06:51:00;;;;;;;7.97;3.10;;;23.60;72.40;;;26.15;47.07;101403.84;5056071;28;20240;-58
2023/07/11 06:53:31;;;;;;;5.00;2.30;;;23.60;72.50;;;26.11;47.23;101398.19;5056602;28;20170;-59
2023/07/11 06:55:59;;;;;;;4.87;2.37;;;23.70;72.50;;;26.27;47.18;101401.78;5075963;28;20193;-60
2023/07/11 06:58:27;;;;;;;8.33;2.73;;;23.80;72.50;;;26.38;47.31;101392.66;5069789;28;20190;-62
2023/07/11 07:00:58;;;;;;;4.90;2.80;;;23.90;71.90;;;26.56;46.74;101388.66;5056362;28;20291;-58
2023/07/11 07:03:25;;;;;;;5.10;2.40;;;24.00;71.90;;;26.76;45.61;101386.91;5056794;28;20209;-59
2023/07/11 07:05:58;;;;;;;4.37;2.53;;;24.10;70.70;;;26.85;45.88;101387.19;5056132;28;20704;-60
2023/07/11 07:08:25;;;;;;;3.33;2.70;;;24.30;70.70;;;26.97;45.39;101382.34;5056399;28;20193;-61
2023/07/11 07:10:53;;;;;;;2.40;1.93;;;24.40;70.20;;;27.00;45.46;101378.31;5055882;28;20304;-59
2023/07/11 07:13:22;;;;;;;2.67;1.90;;;24.40;69.70;;;27.07;45.09;101378.84;5069528;28;20209;-59
2023/07/11 07:15:52;;;;;;;4.87;2.47;;;24.50;69.50;;;27.18;45.28;101381.31;5071722;28;20228;-59
2023/07/11 07:18:20;;;;;;;5.30;2.67;;;24.60;69.40;;;27.31;44.95;101374.56;5063840;28;20186;-59
2023/07/11 07:20:51;;;;;;;5.10;2.67;;;24.70;69.50;;;27.42;44.58;101373.50;5064353;28;20685;-60
2023/07/11 07:23:26;;;;;;;2.73;2.17;;;24.80;69.40;;;27.49;44.73;101372.16;5073414;28;20201;-61
2023/07/11 07:25:57;;;;;;;4.13;2.63;;;24.90;69.00;;;27.67;44.58;101378.91;5074701;28;20281;-61
2023/07/11 07:28:25;;;;;;;4.10;2.53;;;25.10;69.20;;;27.81;44.32;101373.75;5063370;28;21141;-61
2023/07/11 07:30:55;;;;;;;4.73;2.57;;;25.20;68.50;;;27.94;44.25;101374.00;5070506;28;20213;-59
2023/07/11 07:33:25;;;;;;;3.13;2.00;;;25.30;68.70;;;28.07;43.63;101365.34;5065799;28;20209;-59
2023/07/11 07:35:55;;;;;;;3.80;2.03;;;25.40;67.90;;;28.25;43.37;101368.50;5066945;28;20303;-59
2023/07/11 07:38:23;;;;;;;3.90;2.30;;;25.50;67.50;;;28.39;42.71;101356.00;5066633;28;20285;-60
2023/07/11 07:40:53;;;;;;;2.87;2.50;;;25.70;66.40;;;28.52;42.47;101358.13;5067964;28;20232;-59
2023/07/11 07:43:21;;;;;;;2.90;2.20;;;25.80;65.80;;;28.57;41.58;101353.50;5071624;28;20200;-57
2023/07/11 07:45:48;;;;;;;3.77;2.37;;;25.90;64.70;;;28.69;41.50;101362.09;5070730;28;20682;-61
2023/07/11 07:48:16;;;;;;;2.47;2.10;;;26.10;64.30;;;28.68;41.08;101356.97;5061664;28;20209;-60
2023/07/11 07:50:44;;;;;;;5.73;2.23;;;26.20;63.00;;;28.82;40.94;101344.44;5063260;28;20247;-60
2023/07/11 07:53:13;;;;;;;3.77;2.43;;;26.30;63.50;;;28.99;40.21;101344.03;5057249;28;20229;-59
2023/07/11 07:55:40;;;;;;;4.43;2.40;;;26.40;61.80;;;29.07;39.36;101349.69;5061791;28;20197;-60
2023/07/11 07:58:10;;;;;;;5.43;2.37;;;26.50;60.20;;;29.14;39.11;101344.75;5070422;28;20225;-60
2023/07/11 08:00:38;;;;;;;2.83;2.40;;;26.60;59.80;;;29.32;38.97;101337.84;5065257;28;20291;-61
2023/07/11 08:03:05;;;;;;;2.30;2.10;;;26.80;60.00;;;29.54;39.02;101337.38;5042507;28;20229;-60
2023/07/11 08:05:32;;;;;;;3.10;2.07;;;26.90;59.40;;;29.65;38.53;101334.28;5065755;28;20197;-61
2023/07/11 08:07:59;;;;;;;3.27;2.53;;;27.00;59.30;;;29.71;37.73;101332.34;5073922;28;20201;-61
2023/07/11 08:10:27;;;;;;;3.07;2.00;;;27.10;58.30;;;29.73;37.72;101330.13;5061451;28;20261;-61
2023/07/11 08:12:54;;;;;;;5.93;2.03;;;27.10;57.60;;;29.81;37.64;101315.97;5065636;28;20216;-60
2023/07/11 08:15:25;;;;;;;5.33;2.63;;;27.30;58.00;;;29.97;37.75;101320.13;5056510;28;20222;-61
2023/07/11 08:17:52;;;;;;;4.63;2.40;;;27.40;57.50;;;30.37;37.13;101314.22;5055048;28;20684;-61
2023/07/11 08:20:19;;;;;;;3.57;2.60;;;27.50;57.40;;;30.95;35.78;101311.25;5057199;28;20210;-58
2023/07/11 08:22:46;;;;;;;2.63;2.40;;;27.70;56.10;;;31.98;34.78;101311.59;5071601;28;20692;-61
2023/07/11 08:25:14;;;;;;;3.77;2.27;;;28.10;56.50;;;32.91;32.22;101318.28;5067345;28;20558;-57
2023/07/11 08:27:41;;;;;;;2.47;2.27;;;28.60;54.30;;;33.55;31.04;101302.50;5066966;28;20312;-61
2023/07/11 08:30:09;;;;;;;4.17;2.80;;;29.10;52.20;;;34.23;29.21;101300.06;5057978;28;20322;-60
2023/07/11 08:32:38;;;;;;;2.78;2.03;;;29.60;50.20;;;35.05;29.35;101293.66;5064010;28;20341;-59
2023/07/11 08:35:09;;;;;;;5.25;2.10;;;30.20;50.00;;;35.28;28.09;101290.38;5062272;28;20190;-59
2023/07/11 08:37:36;;;;;;;4.85;2.22;;;30.70;47.80;;;35.53;27.10;101288.72;5060797;28;20202;-59
2023/07/11 08:40:05;;;;;;;3.55;2.40;;;31.00;45.60;;;35.78;27.91;101285.06;5051014;28;20232;-59
2023/07/11 08:42:40;;;;;;;3.30;2.20;;;31.30;45.40;;;36.57;27.01;101289.75;5051997;28;20193;-59
2023/07/11 08:45:18;;;;;;;2.72;1.90;;;31.80;45.00;;;37.51;25.78;101285.28;5059023;28;20225;-60
2023/07/11 08:47:56;;;;;;;2.65;2.30;;;32.40;44.00;;;38.14;24.29;101287.34;5055647;28;20202;-60
2023/07/11 08:50:29;;;;;;;2.45;2.17;;;32.80;41.50;;;38.24;23.97;101283.31;5056809;28;20236;-61
2023/07/11 08:53:09;;;;;;;3.70;2.40;;;33.10;40.00;;;38.77;23.00;101265.66;5060288;28;20230;-60
2023/07/11 08:55:43;;;;;;;3.63;2.42;;;33.60;39.10;;;38.75;23.21;101270.72;5065345;28;20217;-58
2023/07/11 08:58:17;;;;;;;3.33;2.20;;;33.80;38.40;;;38.49;23.83;101271.09;5071977;28;20226;-58
2023/07/11 09:00:49;;;;;;;2.95;2.55;;;34.00;38.00;;;38.82;23.21;101262.66;5060534;28;20221;-60
2023/07/11 09:03:27;;;;;;;3.47;2.60;;;34.20;37.40;;;38.81;22.64;101266.53;5070987;28;20231;-58
2023/07/11 09:06:01;;;;;;;3.03;2.40;;;34.10;36.00;;;38.96;22.65;101260.28;5063606;28;20197;-59
2023/07/11 09:08:31;;;;;;;4.65;2.38;;;34.30;36.20;;;39.45;22.74;101266.28;5072825;28;20543;-60
2023/07/11 09:11:06;;;;;;;7.47;2.60;;;34.50;36.70;;;40.15;21.90;101256.16;5070267;28;20598;-60
2023/07/11 09:14:06;;;;;;;4.18;2.60;;;34.90;36.00;;;40.58;20.72;101266.97;5055417;28;20236;-59
2023/07/11 09:16:36;;;;;;;4.10;2.67;;;35.10;35.00;;;40.99;20.82;101254.31;5063162;28;20197;-61
2023/07/11 09:19:30;;;;;;;2.65;2.45;;;35.50;34.90;;;41.10;20.20;101261.63;5057660;28;20633;-60
2023/07/11 09:22:15;;;;;;;2.42;2.22;;;35.60;33.50;;;41.01;19.81;101254.78;5054120;28;20224;-59
2023/07/11 09:24:51;;;;;;;4.75;2.53;;;35.80;33.00;;;40.79;20.85;101248.03;5052756;28;20190;-60
2023/07/11 09:27:36;;;;;;;4.00;2.50;;;35.80;32.60;;;40.65;20.89;101250.53;5050612;28;20216;-61
2023/07/11 09:30:18;;;;;;;3.35;2.38;;;35.70;32.50;;;40.36;19.88;101240.84;5051786;28;20219;-60
2023/07/11 09:32:48;;;;;;;3.53;2.58;;;35.60;32.50;;;40.42;20.84;101242.13;5055508;28;20496;-59
2023/07/11 09:35:28;;;;;;;2.72;2.53;;;35.60;32.80;;;40.28;20.89;101243.81;5053201;28;20638;-60
2023/07/11 09:38:05;;;;;;;4.00;2.67;;;35.70;32.50;;;39.81;21.37;101233.72;5061528;28;20228;-60
2023/07/11 09:40:37;;;;;;;3.28;2.45;;;35.70;32.90;;;39.86;21.28;101229.88;5054636;28;20221;-60
2023/07/11 09:43:04;;;;;;;6.75;2.60;;;35.50;32.90;;;40.39;21.06;101233.78;5058784;28;20198;-63
2023/07/11 09:45:37;;;;;;;3.45;2.38;;;35.60;33.50;;;41.12;20.89;101237.22;5052373;28;20214;-59
2023/07/11 09:48:15;;;;;;;3.78;2.85;;;35.70;33.30;;;41.22;19.91;101225.50;5064638;28;20194;-60
2023/07/11 09:51:01;;;;;;;3.10;2.80;;;35.80;32.30;;;41.33;20.30;101230.44;5055105;28;20241;-61
2023/07/11 09:53:44;;;;;;;2.97;2.72;;;35.90;32.70;;;41.22;19.84;101228.28;5064947;28;20213;-60
2023/07/11 09:56:15;;;;;;;2.75;2.40;;;36.20;31.90;;;41.32;19.23;101215.81;5065860;28;20286;-60
2023/07/11 09:58:48;;;;;;;4.43;3.03;;;36.20;30.90;;;41.73;19.22;101208.56;5066829;28;20197;-60
2023/07/11 10:01:22;;;;;;;2.63;2.40;;;36.30;30.70;;;42.00;18.98;101199.06;5059121;28;20280;-60
2023/07/11 10:03:55;;;;;;;3.13;2.67;;;36.40;30.30;;;42.30;18.43;101190.75;5048830;28;20549;-60
2023/07/11 10:06:33;;;;;;;2.60;2.40;;;36.60;30.70;;;42.38;18.42;101190.47;5053635;28;20245;-58
2023/07/11 10:09:17;;;;;;;2.95;2.72;;;36.70;29.90;;;42.78;17.98;101183.34;5061081;28;20212;-60
2023/07/11 10:11:52;;;;;;;2.53;2.33;;;36.90;29.70;;;42.52;17.54;101187.06;5060309;28;20274;-60
2023/07/11 10:14:25;;;;;;;3.50;2.75;;;36.90;28.90;;;42.62;17.67;101180.03;5050039;28;20215;-60
2023/07/11 10:16:59;;;;;;;4.05;2.50;;;37.10;28.60;;;42.98;17.75;101177.22;5054392;28;20274;-60
2023/07/11 10:19:35;;;;;;;2.95;2.72;;;37.20;28.90;;;43.17;17.70;101170.66;5058947;28;20312;-60
2023/07/11 10:22:16;;;;;;;3.90;3.08;;;37.30;28.80;;;43.87;17.51;101166.75;5059723;28;20232;-61